Shaw Air Force Base
KSSC : now visible

Airfield :











YOU CAN JOIN US ON...

 
LOGIN :

Register | Disclaimer

   EN    FR    IT 

 









Legend :    VFR   Marginal VFR   IFR   Intensive IFR   Very Intensive IFR
Visi :
Ceiling :
>= 8 km
>= 3000ft
5 to 8 km
1000 to 3000 ft
1500m to 5 km
500 to 1000 ft
800 to 1500m
200 to 500 ft
< 800m
< 200 ft
Symbols :   Thunderstorms  Fog  Heavy snow  Heavy precipitations  Wind > 20 kt






- Airport Elevation : 241 ft


KSSC - Shaw Air Force Base

CURRENT METAR :
  • 041656Z 23005KT 10SM FEW035 29/21 A2999 RMK AO2A SLP155 T02900212 $

EXPIRED METARs :
  • 041556Z 23005KT 10SM SCT017 27/22 A3000 RMK AO2A SLP158 T02730218 $
  • 041512Z VRB04KT 10SM SCT014 25/22 A3000 RMK AO2A SLP159 $
  • 041456Z 25004KT 7SM BKN011 25/22 A3000 RMK AO2A SLP159 T02500219 52012 $
  • 041443Z 26006KT 7SM BKN010 25/22 A3000 RMK AO2A SLP159 $

TAF TAF KSSC
Valid from the 04 at 15:00 until the 05 at 21:00 UTC


041500Z 0415/0521 25009KT 9999 BKN012 QNH2999INS
BECMG 0415/0416 24009KT 9999 SCT030 QNH2991INS
BECMG 0422/0423 23009KT 9999 VCSH SCT040 BKN060 QNH2992INS
BECMG 0502/0503 20006KT 9999 NSW BKN030 QNH2998INS
BECMG 0509/0510 16006KT 8000 BR OVC020 QNH2998INS
BECMG 0512/0513 12006KT 9999 NSW BKN040 QNH3003INS TX33/0420Z TN21/0510Z
KZJX FIR / North America



MET'MAP, your aeronautical weather chart ! - Copyright ORBIFLY December 2007 - Disclaimer

ORBIFLY MET'MAP TEAM :

Programming & Development : Alexandra Zaïnal
Concept & original design : Baudouin d'Aumeries
Assistance for programming : Marc-Olivier Méhu
Technical & hardware support : Manuel Goepfert

Contact : metmap@orbifly.com




SOURCES & CREDITS :

   NOAA       Earth
Advisory